National Weather Service United States Department of Commerce

Moderating Temperatures for the East; Developing Storm for the Plains

Temperatures will continue to moderate across the east half of the nation through at least the first half of this week. A developing storm across the Southern Plains may bring some heavy rain from the Plains to the lower Great Lakes region, a wintry mixture and accumulating snow across the Midwest and Upper Mississippi Valley into mid-week. The west remains unsettled with occasional rain and snow. Read More >

EGE - Eagle, CO - Terminal Aerodrome Forecast (TAF)

FTUS53 KEGE 052342
KEGE 052339Z 0600/0624 23012KT P6SM FEW200
     FM060800 25008KT P6SM VCSH BKN025
     FM061000 26008KT 4SM -SHSN BR BKN025
     FM061200 20007KT P6SM VCSH BKN025
     FM061400 13006KT P6SM VCSH BKN035

For a printable version click KEGE TAF